Time;durP1;ratioP1;P1;durP2;ratioP2;P2;SDS_P1;SDS_P2;PMS_P1;PMS_P2;Temp;Humidity;BMP_temperature;BMP_pressure;BME280_temperature;BME280_humidity;BME280_pressure;Samples;Min_cycle;Max_cycle;Signal;HPM_P1;HPM_P2
2023/06/01 00:01:24;;;;;;;9.68;8.60;;;;;;;;;;9507082;30;20059;-61
2023/06/01 00:06:18;;;;;;;11.90;8.50;;;;;;;;;;9506708;30;20087;-61
2023/06/01 00:11:12;;;;;;;16.10;9.90;;;;;;;;;;9506267;30;20074;-61
2023/06/01 00:16:06;;;;;;;10.30;7.30;;;;;;;;;;9505138;30;20113;-61
2023/06/01 00:21:00;;;;;;;10.85;9.23;;;;;;;;;;9498141;29;20059;-61
2023/06/01 00:25:54;;;;;;;13.20;8.80;;;;;;;;;;9505519;30;20084;-62
2023/06/01 00:30:47;;;;;;;10.38;9.05;;;;;;;;;;9519689;30;20059;-61
2023/06/01 00:35:41;;;;;;;9.00;8.10;;;;;;;;;;9504642;30;20062;-61
2023/06/01 00:40:34;;;;;;;11.45;9.07;;;;;;;;;;9505751;30;20101;-62
2023/06/01 00:45:29;;;;;;;12.00;9.38;;;;;;;;;;9504873;30;20048;-62
2023/06/01 00:50:22;;;;;;;11.35;9.10;;;;;;;;;;9504626;30;20139;-61
2023/06/01 00:55:14;;;;;;;12.30;9.85;;;;;;;;;;9504057;30;20091;-61
2023/06/01 01:00:11;;;;;;;10.20;9.20;;;;;;;;;;9502765;30;20120;-61
2023/06/01 01:05:09;;;;;;;10.82;8.50;;;;;;;;;;9503478;30;20530;-61
2023/06/01 01:10:09;;;;;;;9.82;7.80;;;;;;;;;;9489216;30;20144;-61
2023/06/01 01:15:41;;;;;;;11.63;9.73;;;;;;;;;;9504825;30;20056;-61
2023/06/01 01:20:58;;;;;;;9.82;8.90;;;;;;;;;;9473664;30;20635;-61
2023/06/01 01:26:14;;;;;;;10.95;9.88;;;;;;;;;;9503021;30;20060;-61
2023/06/01 01:31:09;;;;;;;14.02;9.88;;;;;;;;;;9500644;30;20469;-62
2023/06/01 01:36:04;;;;;;;11.40;8.95;;;;;;;;;;9488606;30;20516;-61
2023/06/01 01:40:57;;;;;;;11.40;10.18;;;;;;;;;;9486844;30;20076;-61
2023/06/01 01:45:56;;;;;;;11.45;9.27;;;;;;;;;;9515455;30;20075;-61
2023/06/01 01:50:56;;;;;;;11.90;9.23;;;;;;;;;;9502413;30;20052;-61
2023/06/01 01:55:49;;;;;;;9.70;8.23;;;;;;;;;;9516705;30;20457;-61
2023/06/01 02:01:22;;;;;;;13.40;9.00;;;;;;;;;;9486851;30;20094;-61
2023/06/01 02:06:16;;;;;;;10.82;8.98;;;;;;;;;;9502456;30;20089;-61
2023/06/01 02:11:09;;;;;;;9.40;8.25;;;;;;;;;;9501781;30;20056;-61
2023/06/01 02:16:41;;;;;;;16.27;9.10;;;;;;;;;;9502720;30;20119;-61
2023/06/01 02:21:54;;;;;;;11.65;8.88;;;;;;;;;;9500682;30;20063;-61
2023/06/01 02:26:51;;;;;;;10.32;9.13;;;;;;;;;;9503252;30;20067;-61
2023/06/01 02:31:45;;;;;;;9.70;7.22;;;;;;;;;;9502549;30;20075;-62
2023/06/01 02:36:38;;;;;;;8.52;7.53;;;;;;;;;;9500485;30;20092;-61
2023/06/01 02:41:31;;;;;;;8.80;7.20;;;;;;;;;;9505328;30;20131;-61
2023/06/01 02:46:24;;;;;;;16.65;6.78;;;;;;;;;;9507968;30;20063;-61
2023/06/01 02:51:18;;;;;;;12.63;6.65;;;;;;;;;;9507909;30;20064;-61
2023/06/01 02:56:15;;;;;;;9.52;8.27;;;;;;;;;;9508055;30;20539;-61
2023/06/01 03:01:33;;;;;;;9.40;6.78;;;;;;;;;;9506230;30;20060;-61
2023/06/01 03:06:31;;;;;;;8.55;6.97;;;;;;;;;;9518971;29;20055;-61
2023/06/01 03:11:43;;;;;;;8.80;7.05;;;;;;;;;;9501740;30;20052;-61
2023/06/01 03:16:35;;;;;;;8.85;7.60;;;;;;;;;;9496660;30;20402;-61
2023/06/01 03:21:49;;;;;;;12.98;7.85;;;;;;;;;;9506528;30;20133;-61
2023/06/01 03:26:46;;;;;;;13.57;6.95;;;;;;;;;;9508230;30;20113;-61
2023/06/01 03:31:39;;;;;;;10.82;7.50;;;;;;;;;;9497163;30;20063;-61
2023/06/01 03:36:35;;;;;;;11.27;7.75;;;;;;;;;;9507543;30;20096;-61
2023/06/01 03:41:29;;;;;;;11.07;7.57;;;;;;;;;;9506971;30;20052;-61
2023/06/01 03:46:22;;;;;;;10.05;7.18;;;;;;;;;;9505975;30;20048;-61
2023/06/01 03:51:16;;;;;;;8.60;7.25;;;;;;;;;;9506097;30;20063;-61
2023/06/01 03:56:10;;;;;;;13.15;7.63;;;;;;;;;;9506421;30;20063;-61
2023/06/01 04:01:05;;;;;;;14.00;7.22;;;;;;;;;;9494411;30;20091;-61
2023/06/01 04:06:01;;;;;;;7.45;6.68;;;;;;;;;;9493873;30;20064;-61
2023/06/01 04:10:54;;;;;;;7.68;6.90;;;;;;;;;;9496280;30;20064;-61
2023/06/01 04:15:47;;;;;;;8.00;7.07;;;;;;;;;;9499231;30;20091;-61
2023/06/01 04:20:44;;;;;;;11.50;7.47;;;;;;;;;;9504297;30;20521;-61
2023/06/01 04:25:40;;;;;;;16.15;7.93;;;;;;;;;;9504018;30;20111;-61
2023/06/01 04:30:35;;;;;;;8.82;7.93;;;;;;;;;;9494148;30;20405;-61
2023/06/01 04:35:32;;;;;;;11.85;8.13;;;;;;;;;;9502572;30;20117;-60
2023/06/01 04:40:26;;;;;;;10.45;8.60;;;;;;;;;;9516188;30;20064;-61
2023/06/01 04:45:19;;;;;;;10.70;8.80;;;;;;;;;;9471931;30;20489;-61
2023/06/01 04:50:12;;;;;;;12.38;8.13;;;;;;;;;;9511071;30;20079;-61
2023/06/01 04:55:08;;;;;;;11.23;9.45;;;;;;;;;;9513907;30;20052;-60
2023/06/01 05:00:06;;;;;;;11.68;8.77;;;;;;;;;;9491294;30;20510;-60
2023/06/01 05:05:00;;;;;;;11.27;9.65;;;;;;;;;;9500817;30;20094;-60
2023/06/01 05:09:53;;;;;;;14.18;8.60;;;;;;;;;;9490504;30;20048;-60
2023/06/01 05:14:47;;;;;;;13.02;9.25;;;;;;;;;;9488731;30;20068;-59
2023/06/01 05:19:42;;;;;;;11.85;9.75;;;;;;;;;;9491557;30;20052;-60
2023/06/01 05:24:35;;;;;;;12.57;11.13;;;;;;;;;;9498703;30;20056;-61
2023/06/01 05:29:29;;;;;;;14.88;11.10;;;;;;;;;;9498361;30;20056;-60
2023/06/01 05:34:22;;;;;;;18.08;11.60;;;;;;;;;;9501087;30;20092;-60
2023/06/01 05:39:16;;;;;;;13.15;10.65;;;;;;;;;;9501671;30;20481;-60
2023/06/01 05:44:09;;;;;;;14.25;11.32;;;;;;;;;;9517349;30;20084;-60
2023/06/01 05:49:03;;;;;;;15.52;10.77;;;;;;;;;;9503962;30;20083;-60
2023/06/01 05:53:55;;;;;;;12.60;9.55;;;;;;;;;;9503337;30;20139;-60
2023/06/01 05:58:52;;;;;;;14.20;9.10;;;;;;;;;;9514729;30;20060;-60
2023/06/01 06:03:46;;;;;;;13.55;10.02;;;;;;;;;;9502872;30;20066;-60
2023/06/01 06:08:39;;;;;;;11.02;9.18;;;;;;;;;;9502633;30;20516;-60
2023/06/01 06:13:32;;;;;;;11.75;9.82;;;;;;;;;;9503400;30;20424;-60
2023/06/01 06:18:26;;;;;;;14.85;8.75;;;;;;;;;;9509937;30;20052;-60
2023/06/01 06:23:21;;;;;;;12.88;9.38;;;;;;;;;;9509208;30;20564;-61
2023/06/01 06:28:15;;;;;;;11.77;9.43;;;;;;;;;;9497319;30;20467;-60
2023/06/01 06:33:07;;;;;;;11.77;9.13;;;;;;;;;;9509437;29;21382;-60
2023/06/01 06:38:05;;;;;;;9.52;7.78;;;;;;;;;;9509884;30;20501;-60
2023/06/01 06:42:58;;;;;;;11.00;8.52;;;;;;;;;;9509616;30;20060;-60
2023/06/01 06:47:51;;;;;;;15.25;9.15;;;;;;;;;;9509014;30;20052;-60
2023/06/01 06:52:45;;;;;;;16.08;9.27;;;;;;;;;;9508356;30;20060;-61
2023/06/01 06:57:39;;;;;;;10.27;9.10;;;;;;;;;;9508371;30;20052;-60
2023/06/01 07:02:32;;;;;;;11.15;7.88;;;;;;;;;;9506672;30;20055;-60
2023/06/01 07:07:26;;;;;;;13.55;8.75;;;;;;;;;;9508220;30;20068;-60
2023/06/01 07:12:19;;;;;;;13.13;8.95;;;;;;;;;;9506884;30;20059;-60
2023/06/01 07:17:13;;;;;;;10.73;8.27;;;;;;;;;;9506854;30;20133;-61
2023/06/01 07:22:07;;;;;;;10.88;8.93;;;;;;;;;;9507337;30;20059;-61
2023/06/01 07:27:01;;;;;;;13.32;7.57;;;;;;;;;;9506511;30;20065;-61
2023/06/01 07:31:55;;;;;;;11.23;7.80;;;;;;;;;;9505433;30;20135;-61
2023/06/01 07:36:49;;;;;;;11.23;8.77;;;;;;;;;;9505446;30;20067;-62
2023/06/01 07:41:45;;;;;;;13.13;8.52;;;;;;;;;;9504131;30;20256;-62
2023/06/01 07:46:39;;;;;;;12.77;7.50;;;;;;;;;;9491327;30;20078;-63
2023/06/01 07:51:33;;;;;;;13.32;7.97;;;;;;;;;;9489576;30;20064;-63
2023/06/01 07:56:26;;;;;;;13.77;7.93;;;;;;;;;;9494561;30;20072;-63
2023/06/01 08:01:20;;;;;;;9.30;7.80;;;;;;;;;;9498759;30;20064;-63
2023/06/01 08:06:14;;;;;;;9.65;8.50;;;;;;;;;;9491954;30;20151;-63
2023/06/01 08:11:09;;;;;;;13.10;9.10;;;;;;;;;;9502081;30;20052;-63
2023/06/01 08:16:04;;;;;;;17.92;8.90;;;;;;;;;;9513549;30;20058;-63
2023/06/01 08:20:56;;;;;;;11.95;8.73;;;;;;;;;;9497146;30;20118;-63
2023/06/01 08:25:49;;;;;;;13.00;7.65;;;;;;;;;;9489375;30;20056;-63
2023/06/01 08:30:43;;;;;;;13.75;8.82;;;;;;;;;;9487033;30;20139;-63
2023/06/01 08:35:37;;;;;;;11.52;9.45;;;;;;;;;;9475965;30;20067;-63
2023/06/01 08:40:31;;;;;;;13.00;8.25;;;;;;;;;;9489167;30;20052;-63
2023/06/01 08:45:26;;;;;;;13.40;9.63;;;;;;;;;;9496264;30;20196;-66
2023/06/01 08:50:21;;;;;;;9.30;8.25;;;;;;;;;;9498959;30;20056;-63
2023/06/01 08:55:15;;;;;;;13.57;8.93;;;;;;;;;;9508145;30;20067;-63
2023/06/01 09:00:30;;;;;;;15.10;10.07;;;;;;;;;;9505256;30;20129;-63
2023/06/01 09:05:24;;;;;;;16.40;8.27;;;;;;;;;;9501373;30;20060;-63
2023/06/01 09:10:24;;;;;;;12.95;8.57;;;;;;;;;;9504735;30;20052;-63
2023/06/01 09:15:20;;;;;;;12.32;8.68;;;;;;;;;;9518173;30;20068;-63
2023/06/01 09:20:21;;;;;;;9.60;7.97;;;;;;;;;;9504297;30;20401;-63
2023/06/01 09:25:15;;;;;;;10.73;9.52;;;;;;;;;;9501421;30;20544;-63
2023/06/01 09:30:09;;;;;;;9.98;8.63;;;;;;;;;;9494907;30;20076;-63
2023/06/01 09:35:07;;;;;;;9.25;7.25;;;;;;;;;;9504243;30;20060;-63
2023/06/01 09:40:01;;;;;;;12.65;7.88;;;;;;;;;;9503671;30;20064;-63
2023/06/01 09:44:55;;;;;;;11.70;6.80;;;;;;;;;;9502713;30;20209;-64
2023/06/01 09:49:51;;;;;;;7.70;6.72;;;;;;;;;;9503339;30;20064;-64
2023/06/01 09:54:48;;;;;;;8.63;6.55;;;;;;;;;;9499216;30;20056;-63
2023/06/01 09:59:44;;;;;;;10.70;7.13;;;;;;;;;;9501987;30;20578;-64
2023/06/01 10:04:40;;;;;;;10.68;5.57;;;;;;;;;;9504044;30;20056;-62
2023/06/01 10:09:38;;;;;;;15.40;7.30;;;;;;;;;;9502516;29;20156;-62
2023/06/01 10:14:33;;;;;;;5.90;5.18;;;;;;;;;;9502461;30;20091;-62
2023/06/01 10:19:27;;;;;;;8.40;6.07;;;;;;;;;;9502931;30;20109;-62
2023/06/01 10:24:22;;;;;;;8.50;6.22;;;;;;;;;;9501937;30;20052;-62
2023/06/01 10:29:17;;;;;;;8.63;5.85;;;;;;;;;;9516871;30;20064;-62
2023/06/01 10:34:11;;;;;;;7.78;5.80;;;;;;;;;;9501479;30;20230;-62
2023/06/01 10:39:26;;;;;;;6.30;5.57;;;;;;;;;;9501618;30;20064;-62
2023/06/01 10:44:40;;;;;;;6.60;5.13;;;;;;;;;;9502680;30;20080;-62
2023/06/01 10:49:49;;;;;;;6.57;4.97;;;;;;;;;;9502143;30;20086;-62
2023/06/01 10:54:44;;;;;;;7.25;4.85;;;;;;;;;;9502812;30;20457;-62
2023/06/01 10:59:38;;;;;;;7.43;4.85;;;;;;;;;;9498643;30;20065;-62
2023/06/01 11:04:36;;;;;;;15.23;4.38;;;;;;;;;;9507387;30;20109;-62
2023/06/01 11:09:46;;;;;;;7.25;4.03;;;;;;;;;;9506880;30;20129;-62
2023/06/01 11:15:14;;;;;;;6.65;4.40;;;;;;;;;;9506169;30;20105;-62
2023/06/01 11:20:11;;;;;;;11.00;4.30;;;;;;;;;;9501943;30;20052;-62
2023/06/01 11:25:08;;;;;;;6.00;3.97;;;;;;;;;;9497546;30;20086;-62
2023/06/01 11:30:02;;;;;;;8.20;4.28;;;;;;;;;;9518883;30;20056;-61
2023/06/01 11:34:55;;;;;;;8.45;4.47;;;;;;;;;;9516257;30;20518;-63
2023/06/01 11:39:49;;;;;;;6.03;4.55;;;;;;;;;;9520723;30;20052;-63
2023/06/01 11:44:45;;;;;;;6.47;4.35;;;;;;;;;;9504701;30;20060;-63
2023/06/01 11:49:51;;;;;;;6.95;4.47;;;;;;;;;;9516251;30;20060;-63
2023/06/01 11:54:45;;;;;;;8.20;4.15;;;;;;;;;;9505878;30;20525;-63
2023/06/01 11:59:41;;;;;;;15.05;4.80;;;;;;;;;;9507934;30;20121;-62
2023/06/01 12:04:34;;;;;;;6.28;3.47;;;;;;;;;;9521354;30;20139;-62
2023/06/01 12:09:28;;;;;;;12.20;3.40;;;;;;;;;;9504138;30;20135;-63
2023/06/01 12:14:22;;;;;;;5.93;3.47;;;;;;;;;;9501025;30;20067;-63
2023/06/01 12:19:15;;;;;;;9.93;4.65;;;;;;;;;;9514254;30;20052;-62
2023/06/01 12:24:09;;;;;;;8.02;3.20;;;;;;;;;;9521954;30;20060;-63
2023/06/01 12:29:03;;;;;;;4.80;3.90;;;;;;;;;;9505149;30;20060;-63
2023/06/01 12:33:56;;;;;;;6.40;4.15;;;;;;;;;;9504416;30;20108;-63
2023/06/01 12:38:53;;;;;;;6.45;3.65;;;;;;;;;;9492853;30;20045;-63
2023/06/01 12:43:49;;;;;;;5.32;3.22;;;;;;;;;;9504291;30;20059;-63
2023/06/01 12:48:43;;;;;;;;;;;;;;;;;;9504185;30;20057;-63
2023/06/01 12:53:37;;;;;;;11.27;3.83;;;;;;;;;;9503960;29;19926;-63
2023/06/01 12:58:32;;;;;;;7.80;4.17;;;;;;;;;;9494779;30;20056;-63
2023/06/01 13:03:24;;;;;;;6.57;3.75;;;;;;;;;;9494409;30;20096;-62
2023/06/01 13:08:18;;;;;;;10.73;4.10;;;;;;;;;;9499360;30;20139;-63
2023/06/01 13:13:15;;;;;;;7.97;4.07;;;;;;;;;;9504283;30;20071;-63
2023/06/01 13:18:09;;;;;;;5.35;3.63;;;;;;;;;;9504120;30;20557;-63
2023/06/01 13:23:06;;;;;;;5.93;4.05;;;;;;;;;;9501976;30;20488;-63
2023/06/01 13:28:00;;;;;;;10.75;4.10;;;;;;;;;;9502519;30;20052;-63
2023/06/01 13:32:54;;;;;;;7.18;4.53;;;;;;;;;;9503208;29;20064;-63
2023/06/01 13:37:48;;;;;;;10.60;4.15;;;;;;;;;;9507442;30;20569;-63
2023/06/01 13:42:47;;;;;;;13.70;4.10;;;;;;;;;;9504019;30;20052;-63
2023/06/01 13:47:41;;;;;;;5.13;3.60;;;;;;;;;;9502893;30;20048;-61
2023/06/01 13:52:34;;;;;;;8.23;4.00;;;;;;;;;;9500486;30;20090;-61
2023/06/01 13:57:28;;;;;;;7.93;4.03;;;;;;;;;;9500189;30;20144;-62
2023/06/01 14:02:22;;;;;;;5.53;4.22;;;;;;;;;;9498550;30;20064;-61
2023/06/01 14:07:16;;;;;;;9.80;4.13;;;;;;;;;;9495573;30;20063;-61
2023/06/01 14:12:09;;;;;;;4.75;3.55;;;;;;;;;;9503150;30;20114;-61
2023/06/01 14:17:05;;;;;;;5.75;4.05;;;;;;;;;;9502183;30;20056;-61
2023/06/01 14:21:59;;;;;;;8.25;5.00;;;;;;;;;;9503167;30;20067;-61
2023/06/01 14:26:52;;;;;;;8.80;4.40;;;;;;;;;;9502851;30;20052;-62
2023/06/01 14:31:45;;;;;;;9.05;5.35;;;;;;;;;;9514917;30;20497;-61
2023/06/01 14:36:39;;;;;;;9.70;4.90;;;;;;;;;;9499686;30;20103;-63
2023/06/01 14:41:40;;;;;;;7.82;4.63;;;;;;;;;;9473408;30;20053;-63
2023/06/01 14:46:37;;;;;;;5.85;4.50;;;;;;;;;;9474217;30;20057;-63
2023/06/01 14:51:32;;;;;;;7.93;4.63;;;;;;;;;;9504900;30;20064;-63
2023/06/01 14:56:26;;;;;;;4.80;4.22;;;;;;;;;;9509338;30;20415;-63
2023/06/01 15:01:20;;;;;;;5.07;4.32;;;;;;;;;;9520543;30;20052;-63
2023/06/01 15:06:13;;;;;;;7.45;4.10;;;;;;;;;;9507707;30;20060;-63
2023/06/01 15:11:06;;;;;;;11.13;4.40;;;;;;;;;;9520776;30;20080;-63
2023/06/01 15:16:00;;;;;;;7.32;4.57;;;;;;;;;;9507334;30;20076;-63
2023/06/01 15:20:54;;;;;;;8.05;5.28;;;;;;;;;;9507861;30;20602;-63
2023/06/01 15:25:48;;;;;;;8.07;4.57;;;;;;;;;;9476667;30;20074;-63
2023/06/01 15:30:40;;;;;;;8.82;4.68;;;;;;;;;;9503284;30;20052;-63
2023/06/01 15:35:33;;;;;;;6.05;4.78;;;;;;;;;;9521595;30;20517;-63
2023/06/01 15:40:26;;;;;;;11.30;5.25;;;;;;;;;;9475021;30;20460;-63
2023/06/01 15:45:20;;;;;;;11.60;5.00;;;;;;;;;;9503216;30;20056;-63
2023/06/01 15:50:14;;;;;;;8.07;4.68;;;;;;;;;;9505661;30;20052;-63
2023/06/01 15:55:08;;;;;;;8.93;4.95;;;;;;;;;;9505199;30;20063;-63
2023/06/01 16:00:02;;;;;;;5.68;5.10;;;;;;;;;;9500525;30;20056;-63
2023/06/01 16:05:03;;;;;;;8.85;4.70;;;;;;;;;;9505641;30;20071;-63
2023/06/01 16:09:56;;;;;;;5.45;4.65;;;;;;;;;;9478449;30;20067;-63
2023/06/01 16:14:50;;;;;;;28.23;5.65;;;;;;;;;;9504475;30;20525;-63
2023/06/01 16:19:44;;;;;;;6.20;4.68;;;;;;;;;;9505633;30;20052;-63
2023/06/01 16:24:38;;;;;;;6.40;5.25;;;;;;;;;;9505097;30;20064;-63
2023/06/01 16:29:32;;;;;;;7.10;5.03;;;;;;;;;;9489695;30;20052;-63
2023/06/01 16:34:25;;;;;;;5.97;4.90;;;;;;;;;;9502253;30;20067;-64
2023/06/01 16:39:19;;;;;;;7.07;4.88;;;;;;;;;;9505672;30;20568;-63
2023/06/01 16:44:12;;;;;;;8.05;4.57;;;;;;;;;;9503856;30;20056;-64
2023/06/01 16:49:06;;;;;;;14.73;6.05;;;;;;;;;;9504287;30;20454;-64
2023/06/01 16:54:00;;;;;;;8.48;5.15;;;;;;;;;;9504442;30;20070;-64
2023/06/01 16:58:53;;;;;;;8.63;4.78;;;;;;;;;;9501308;30;20053;-64
2023/06/01 17:03:48;;;;;;;9.52;5.53;;;;;;;;;;9503911;30;20086;-63
2023/06/01 17:08:42;;;;;;;8.98;4.68;;;;;;;;;;9504030;30;20076;-63
2023/06/01 17:13:36;;;;;;;8.43;5.43;;;;;;;;;;9503408;30;20059;-63
2023/06/01 17:18:29;;;;;;;8.88;5.55;;;;;;;;;;9502410;30;20064;-64
2023/06/01 17:23:23;;;;;;;7.80;5.72;;;;;;;;;;9496024;30;20127;-63
2023/06/01 17:28:17;;;;;;;8.32;5.50;;;;;;;;;;9491680;30;20052;-63
2023/06/01 17:33:12;;;;;;;6.40;5.18;;;;;;;;;;9494386;30;20091;-64
2023/06/01 17:38:06;;;;;;;4.60;4.20;;;;;;;;;;9494299;30;20063;-63
2023/06/01 17:43:00;;;;;;;6.47;3.83;;;;;;;;;;9496909;30;20533;-63
2023/06/01 17:47:54;;;;;;;6.25;3.78;;;;;;;;;;9497465;30;20064;-63
2023/06/01 17:52:47;;;;;;;4.03;3.55;;;;;;;;;;9493756;30;20060;-62
2023/06/01 17:57:41;;;;;;;5.13;4.07;;;;;;;;;;9496888;30;20064;-63
2023/06/01 18:02:34;;;;;;;6.30;3.92;;;;;;;;;;9490006;30;20102;-63
2023/06/01 18:07:28;;;;;;;5.68;3.65;;;;;;;;;;9515223;30;20052;-63
2023/06/01 18:12:23;;;;;;;10.98;4.43;;;;;;;;;;9496353;30;20135;-63
2023/06/01 18:17:17;;;;;;;7.68;3.67;;;;;;;;;;9508858;30;20144;-64
2023/06/01 18:22:11;;;;;;;10.70;4.18;;;;;;;;;;9510225;30;20512;-64
2023/06/01 18:27:06;;;;;;;7.88;3.85;;;;;;;;;;9509529;30;20091;-63
2023/06/01 18:31:59;;;;;;;8.77;3.90;;;;;;;;;;9508251;30;20088;-65
2023/06/01 18:36:53;;;;;;;4.32;3.70;;;;;;;;;;9494212;30;20139;-66
2023/06/01 18:41:46;;;;;;;5.45;3.72;;;;;;;;;;9506105;30;20060;-66
2023/06/01 18:46:40;;;;;;;4.18;3.78;;;;;;;;;;9506325;30;20500;-66
2023/06/01 18:51:35;;;;;;;4.88;3.80;;;;;;;;;;9505739;30;20064;-66
2023/06/01 18:56:29;;;;;;;8.68;5.47;;;;;;;;;;9506114;29;20067;-66
2023/06/01 19:01:23;;;;;;;6.18;4.70;;;;;;;;;;9506476;30;20468;-66
2023/06/01 19:06:16;;;;;;;6.28;4.68;;;;;;;;;;9508929;30;20056;-66
2023/06/01 19:11:10;;;;;;;5.82;4.13;;;;;;;;;;9508616;30;20052;-66
2023/06/01 19:16:06;;;;;;;8.68;4.30;;;;;;;;;;9507342;29;20416;-65
2023/06/01 19:21:21;;;;;;;6.03;4.40;;;;;;;;;;9497200;30;20052;-66
2023/06/01 19:26:14;;;;;;;10.05;5.30;;;;;;;;;;9498874;30;20060;-64
2023/06/01 19:31:11;;;;;;;5.13;4.20;;;;;;;;;;9508049;30;20052;-66
2023/06/01 19:36:06;;;;;;;5.97;4.35;;;;;;;;;;9508708;30;20060;-67
2023/06/01 19:41:00;;;;;;;4.80;4.40;;;;;;;;;;9507056;30;20066;-66
2023/06/01 19:45:58;;;;;;;8.70;4.03;;;;;;;;;;9506327;30;20091;-66
2023/06/01 19:50:53;;;;;;;4.70;3.97;;;;;;;;;;9521358;30;20056;-66
2023/06/01 19:55:49;;;;;;;7.38;5.22;;;;;;;;;;9498862;30;20423;-73
2023/06/01 20:00:48;;;;;;;7.32;5.38;;;;;;;;;;9492476;30;20117;-66
2023/06/01 20:05:43;;;;;;;8.88;4.88;;;;;;;;;;9495437;30;20159;-66
2023/06/01 20:10:36;;;;;;;8.10;4.57;;;;;;;;;;9492643;30;20054;-66
2023/06/01 20:15:32;;;;;;;7.75;4.55;;;;;;;;;;9502631;30;20479;-67
2023/06/01 20:20:25;;;;;;;5.90;4.88;;;;;;;;;;9498837;30;20064;-66
2023/06/01 20:25:27;;;;;;;6.18;4.93;;;;;;;;;;9495745;30;20060;-67
2023/06/01 20:30:49;;;;;;;8.45;4.45;;;;;;;;;;9497403;30;20056;-66
2023/06/01 20:35:42;;;;;;;4.72;4.22;;;;;;;;;;9494812;30;20053;-67
2023/06/01 20:40:50;;;;;;;5.72;5.13;;;;;;;;;;9497090;29;20047;-68
2023/06/01 20:46:27;;;;;;;4.63;3.85;;;;;;;;;;9495477;30;20084;-67
2023/06/01 20:51:34;;;;;;;5.47;4.70;;;;;;;;;;9499400;30;20064;-67
2023/06/01 20:56:35;;;;;;;5.30;4.78;;;;;;;;;;9488297;30;20052;-66
2023/06/01 21:01:29;;;;;;;5.32;4.50;;;;;;;;;;9497623;30;20084;-66
2023/06/01 21:06:24;;;;;;;6.57;4.70;;;;;;;;;;9492674;30;20056;-67
2023/06/01 21:11:18;;;;;;;4.90;4.30;;;;;;;;;;9500947;30;20048;-67
2023/06/01 21:16:12;;;;;;;6.97;4.40;;;;;;;;;;9505730;30;20068;-66
2023/06/01 21:21:06;;;;;;;5.88;4.47;;;;;;;;;;9497133;30;20135;-67
2023/06/01 21:26:00;;;;;;;5.70;3.88;;;;;;;;;;9500930;30;20080;-70
2023/06/01 21:30:54;;;;;;;4.70;4.13;;;;;;;;;;9497707;30;20080;-64
2023/06/01 21:35:49;;;;;;;12.98;5.05;;;;;;;;;;9502031;30;20121;-64
2023/06/01 21:40:43;;;;;;;5.40;4.28;;;;;;;;;;9495791;30;20055;-64
2023/06/01 21:45:36;;;;;;;4.60;3.75;;;;;;;;;;9494545;30;20091;-65
2023/06/01 21:50:32;;;;;;;6.00;4.47;;;;;;;;;;9500166;30;20110;-65
2023/06/01 21:55:26;;;;;;;6.85;3.63;;;;;;;;;;9493335;29;20062;-64
2023/06/01 22:00:21;;;;;;;4.10;3.67;;;;;;;;;;9492359;30;20056;-65
2023/06/01 22:05:16;;;;;;;4.35;3.92;;;;;;;;;;9494983;30;20059;-64
2023/06/01 22:10:10;;;;;;;9.55;4.05;;;;;;;;;;9494931;30;20517;-63
2023/06/01 22:15:05;;;;;;;4.43;4.03;;;;;;;;;;9492409;30;20106;-64
2023/06/01 22:19:59;;;;;;;4.18;3.78;;;;;;;;;;9508155;30;20143;-64
2023/06/01 22:24:54;;;;;;;7.45;4.70;;;;;;;;;;9496938;30;20075;-64
2023/06/01 22:29:49;;;;;;;9.63;4.00;;;;;;;;;;9495285;30;20101;-65
2023/06/01 22:34:43;;;;;;;4.63;4.22;;;;;;;;;;9500599;30;20075;-64
2023/06/01 22:39:39;;;;;;;5.25;3.80;;;;;;;;;;9498972;30;20134;-64
2023/06/01 22:44:35;;;;;;;4.63;4.22;;;;;;;;;;9491575;30;20052;-65
2023/06/01 22:49:34;;;;;;;6.93;3.90;;;;;;;;;;9488818;30;20064;-64
2023/06/01 22:54:28;;;;;;;5.55;4.53;;;;;;;;;;9485207;30;20060;-64
2023/06/01 22:59:24;;;;;;;4.65;4.20;;;;;;;;;;9497682;29;20086;-64
2023/06/01 23:04:20;;;;;;;4.97;4.35;;;;;;;;;;9498023;30;20139;-64
2023/06/01 23:09:16;;;;;;;6.70;4.50;;;;;;;;;;9490346;30;20056;-64
2023/06/01 23:14:12;;;;;;;5.43;4.25;;;;;;;;;;9500996;30;20591;-64
2023/06/01 23:19:08;;;;;;;6.43;4.47;;;;;;;;;;9497789;30;20133;-64
2023/06/01 23:24:06;;;;;;;5.85;4.88;;;;;;;;;;9504692;29;20111;-64
2023/06/01 23:29:03;;;;;;;6.03;4.55;;;;;;;;;;9501683;30;20049;-64
2023/06/01 23:33:58;;;;;;;4.90;4.43;;;;;;;;;;9501003;30;20067;-64
2023/06/01 23:38:52;;;;;;;6.82;4.55;;;;;;;;;;9503854;30;20068;-64
2023/06/01 23:43:47;;;;;;;5.75;5.15;;;;;;;;;;9501277;30;20509;-64
2023/06/01 23:48:41;;;;;;;4.95;4.50;;;;;;;;;;9503249;30;20134;-64
2023/06/01 23:53:38;;;;;;;8.07;4.55;;;;;;;;;;9495930;30;20053;-63
2023/06/01 23:58:32;;;;;;;5.72;5.15;;;;;;;;;;9497338;30;20131;-64
